Time;durP1;ratioP1;P1;durP2;ratioP2;P2;SDS_P1;SDS_P2;PMS_P1;PMS_P2;Temp;Humidity;BMP_temperature;BMP_pressure;BME280_temperature;BME280_humidity;BME280_pressure;Samples;Min_cycle;Max_cycle;Signal;HPM_P1;HPM_P2
2023/04/13 05:25:05;;;;;;;;;;;;;;;7.42;67.31;97056.06;5899082;23;20017;-60
2023/04/13 05:27:30;;;;;;;;;;;;;;;7.40;67.91;97051.88;4971000;28;20005;-63
2023/04/13 05:29:56;;;;;;;;;;;;;;;7.38;67.49;97060.66;4969621;28;19918;-60
2023/04/13 05:32:21;;;;;;;;;;;;;;;7.49;68.34;97061.66;4971969;28;19925;-62
2023/04/13 05:34:46;;;;;;;;;;;;;;;7.43;67.85;97062.09;4966611;28;20443;-60
2023/04/13 05:37:13;;;;;;;;;;;;;;;7.44;66.87;97055.97;4956289;28;20396;-64
2023/04/13 05:39:38;;;;;;;;;;;;;;;7.49;68.48;97052.03;4959173;28;19954;-63
2023/04/13 05:42:04;;;;;;;;;;;;;;;7.58;68.42;97055.75;4954444;28;19993;-63
2023/04/13 05:44:29;;;;;;;;;;;;;;;7.62;67.08;97062.41;4953247;28;19929;-63
2023/04/13 05:46:55;;;;;;;;;;;;;;;7.72;67.95;97062.56;4956293;28;19919;-64
2023/04/13 05:49:21;;;;;;;;;;;;;;;7.73;67.11;97057.22;4951133;28;19919;-64
2023/04/13 05:51:46;;;;;;;;;;;;;;;7.78;66.48;97060.31;4954568;28;20407;-64
2023/04/13 05:54:12;;;;;;;;;;;;;;;7.84;66.33;97057.25;4954184;28;20403;-64
2023/04/13 05:56:38;;;;;;;;;;;;;;;7.88;66.02;97052.63;4954222;28;19921;-64
2023/04/13 05:59:03;;;;;;;;;;;;;;;7.87;65.49;97053.56;4949835;28;19926;-63
2023/04/13 06:01:29;;;;;;;;;;;;;;;7.91;64.38;97051.53;4951350;29;19923;-62
2023/04/13 06:03:54;;;;;;;;;;;;;;;7.96;63.93;97050.25;4953772;29;20944;-63
2023/04/13 06:06:20;;;;;;;;;;;;;;;7.98;63.90;97050.13;4952827;28;19998;-62
2023/04/13 06:08:45;;;;;;;;;;;;;;;7.99;64.98;97049.19;4955389;29;19953;-62
2023/04/13 06:11:10;;;;;;;;;;;;;;;7.98;63.75;97048.38;4955870;28;19914;-62
2023/04/13 06:13:35;;;;;;;;;;;;;;;7.98;62.83;97057.97;4956086;28;19941;-63
2023/04/13 06:16:01;;;;;;;;;;;;;;;7.91;63.78;97056.75;4955770;28;19922;-63
2023/04/13 06:18:26;;;;;;;;;;;;;;;7.95;62.57;97058.19;4954478;29;19914;-63
2023/04/13 06:20:51;;;;;;;;;;;;;;;7.85;62.20;97063.28;4953770;28;19937;-63
2023/04/13 06:23:16;;;;;;;;;;;;;;;7.85;63.03;97056.28;4951398;28;20009;-63
2023/04/13 06:25:41;;;;;;;;;;;;;;;7.88;63.30;97060.47;4955158;28;20006;-64
2023/04/13 06:28:07;;;;;;;;;;;;;;;7.97;63.35;97061.53;4955298;29;19942;-62
2023/04/13 06:30:32;;;;;;;;;;;;;;;8.08;63.30;97064.97;4955661;29;19914;-63
2023/04/13 06:32:57;;;;;;;;;;;;;;;8.10;62.70;97062.25;4955400;29;19915;-63
2023/04/13 06:35:22;;;;;;;;;;;;;;;8.13;62.80;97062.03;4955371;28;20294;-63
2023/04/13 06:37:48;;;;;;;;;;;;;;;8.16;62.14;97068.81;4954011;29;20013;-63
2023/04/13 06:40:14;;;;;;;;;;;;;;;8.26;61.84;97057.53;4955212;29;20005;-63
2023/04/13 06:42:40;;;;;;;;;;;;;;;8.28;61.29;97060.00;4955138;29;19918;-64
2023/04/13 06:45:08;;;;;;;;;;;;;;;8.36;62.44;97060.22;4953890;28;19962;-63
2023/04/13 06:47:34;;;;;;;;;;;;;;;8.46;61.23;97058.59;4953885;29;20005;-63
2023/04/13 06:50:09;;;;;;;;;;;;;;;8.49;60.45;97062.75;4954078;29;20357;-63
2023/04/13 06:52:34;;;;;;;;;;;;;;;8.54;61.56;97065.84;4954074;29;19945;-62
2023/04/13 06:55:00;;;;;;;;;;;;;;;8.56;61.01;97069.16;4954844;28;20376;-62
2023/04/13 06:57:25;;;;;;;;;;;;;;;8.65;61.68;97063.22;4953627;29;19919;-63
2023/04/13 06:59:50;;;;;;;;;;;;;;;8.71;60.16;97073.19;4954966;29;19961;-63
2023/04/13 07:02:15;;;;;;;;;;;;;;;8.69;61.07;97072.47;4954800;29;19958;-62
2023/04/13 07:04:40;;;;;;;;;;;;;;;8.82;59.88;97074.97;4953730;28;19973;-62
2023/04/13 07:07:06;;;;;;;;;;;;;;;8.87;59.26;97078.03;4954612;29;19958;-62
2023/04/13 07:09:31;;;;;;;;;;;;;;;8.96;59.54;97076.47;4954191;28;19921;-63
2023/04/13 07:11:56;;;;;;;;;;;;;;;9.09;60.01;97084.19;4954719;29;19915;-62
2023/04/13 07:14:22;;;;;;;;;;;;;;;9.20;60.32;97084.97;4953345;29;19919;-63
2023/04/13 07:16:47;;;;;;;;;;;;;;;9.36;59.39;97083.72;4954511;28;20006;-62
2023/04/13 07:19:12;;;;;;;;;;;;;;;9.44;57.65;97097.03;4954532;29;20013;-63
2023/04/13 07:21:38;;;;;;;;;;;;;;;9.49;57.33;97100.06;4954549;29;20299;-63
2023/04/13 07:24:03;;;;;;;;;;;;;;;9.57;57.23;97102.09;4954571;29;19915;-63
2023/04/13 07:26:28;;;;;;;;;;;;;;;9.58;56.64;97108.97;4954312;28;19922;-63
2023/04/13 07:28:54;;;;;;;;;;;;;;;9.64;56.11;97114.53;4954361;29;19966;-63
2023/04/13 07:31:19;;;;;;;;;;;;;;;9.64;56.08;97106.69;4953189;29;19958;-62
2023/04/13 07:33:45;;;;;;;;;;;;;;;9.62;55.50;97105.97;4953079;29;20375;-63
2023/04/13 07:36:10;;;;;;;;;;;;;;;9.64;56.06;97103.25;4954370;28;19965;-63
2023/04/13 07:38:35;;;;;;;;;;;;;;;9.75;56.34;97106.63;4954067;29;19914;-62
2023/04/13 07:41:00;;;;;;;;;;;;;;;9.79;56.41;97111.63;4954263;29;19921;-62
2023/04/13 07:43:26;;;;;;;;;;;;;;;9.74;55.65;97118.06;4954264;29;20291;-64
2023/04/13 07:45:51;;;;;;;;;;;;;;;9.53;54.58;97111.97;4954310;28;20351;-63
2023/04/13 07:48:16;;;;;;;;;;;;;;;9.47;54.86;97125.56;4953985;29;19921;-62
2023/04/13 07:50:41;;;;;;;;;;;;;;;9.31;55.32;97112.88;4954180;29;19914;-62
2023/04/13 07:53:07;;;;;;;;;;;;;;;9.40;54.62;97120.00;4952942;29;20038;-62
2023/04/13 07:55:32;;;;;;;;;;;;;;;9.57;56.02;97118.63;4953932;28;20301;-63
2023/04/13 07:57:58;;;;;;;;;;;;;;;9.64;55.58;97130.25;4953951;29;19915;-63
2023/04/13 08:00:23;;;;;;;;;;;;;;;9.77;54.72;97119.59;4953970;29;20017;-63
2023/04/13 08:02:49;;;;;;;;;;;;;;;9.78;54.35;97118.66;4953964;29;19945;-63
2023/04/13 08:05:14;;;;;;;;;;;;;;;9.82;54.68;97127.91;4953962;28;19915;-64
2023/04/13 08:07:39;;;;;;;;;;;;;;;9.91;54.74;97126.31;4953924;29;19919;-64
2023/04/13 08:10:05;;;;;;;;;;;;;;;9.95;54.41;97132.97;4953881;29;19961;-63
2023/04/13 08:12:30;;;;;;;;;;;;;;;10.11;54.29;97128.09;4954009;28;20009;-63
2023/04/13 08:14:56;;;;;;;;;;;;;;;10.17;54.57;97127.59;4953953;28;20402;-63
2023/04/13 08:17:21;;;;;;;;;;;;;;;10.21;54.76;97128.97;4953847;29;19915;-64
2023/04/13 08:19:47;;;;;;;;;;;;;;;10.22;54.01;97130.66;4954359;28;20428;-64
2023/04/13 08:22:12;;;;;;;;;;;;;;;10.23;53.03;97132.31;4956113;29;19946;-63
2023/04/13 08:24:37;;;;;;;;;;;;;;;10.21;53.74;97139.47;4957704;28;20403;-64
2023/04/13 08:27:04;;;;;;;;;;;;;;;10.10;54.06;97134.31;4957473;29;19974;-63
2023/04/13 08:29:30;;;;;;;;;;;;;;;9.99;54.50;97140.44;4957572;29;19914;-63
2023/04/13 08:31:55;;;;;;;;;;;;;;;9.88;54.44;97139.69;4957642;29;19922;-63
2023/04/13 08:34:21;;;;;;;;;;;;;;;9.91;54.67;97134.16;4957561;29;19922;-64
2023/04/13 08:36:46;;;;;;;;;;;;;;;9.92;55.47;97133.22;4957418;28;19926;-62
2023/04/13 08:39:12;;;;;;;;;;;;;;;10.01;55.18;97131.63;4956114;29;20005;-64
2023/04/13 08:41:37;;;;;;;;;;;;;;;10.19;54.95;97128.31;4957379;29;20029;-63
2023/04/13 08:44:05;;;;;;;;;;;;;;;10.41;55.12;97124.72;4957358;29;19922;-63
2023/04/13 08:46:30;;;;;;;;;;;;;;;10.57;52.52;97124.25;4956109;28;20343;-63
2023/04/13 08:48:56;;;;;;;;;;;;;;;10.58;53.33;97125.06;4957527;29;20360;-63
2023/04/13 08:51:21;;;;;;;;;;;;;;;10.59;52.83;97118.88;4957333;29;20454;-63
2023/04/13 08:53:46;;;;;;;;;;;;;;;10.83;52.80;97111.50;4957121;29;20332;-64
2023/04/13 08:56:12;;;;;;;;;;;;;;;10.89;52.47;97108.34;4955943;28;19914;-64
2023/04/13 08:58:37;;;;;;;;;;;;;;;10.81;51.89;97126.56;4956948;29;20316;-64
2023/04/13 09:01:03;;;;;;;;;;;;;;;11.01;51.41;97113.47;4955980;29;19937;-64
2023/04/13 09:03:32;;;;;;;;;;;;;;;11.33;50.80;97106.22;4939911;29;19926;-64
2023/04/13 09:05:58;;;;;;;;;;;;;;;11.50;50.43;97111.78;4955887;28;19921;-64
2023/04/13 09:08:24;;;;;;;;;;;;;;;11.63;51.03;97107.06;4956765;29;19950;-64
2023/04/13 09:10:50;;;;;;;;;;;;;;;11.76;51.98;97106.78;4955676;29;19958;-64
2023/04/13 09:13:15;;;;;;;;;;;;;;;11.75;49.88;97102.50;4955687;29;20386;-62
2023/04/13 09:15:41;;;;;;;;;;;;;;;11.51;48.86;97098.50;4955458;28;19922;-63
2023/04/13 09:18:09;;;;;;;;;;;;;;;11.51;49.64;97109.00;4955525;29;20355;-63
2023/04/13 09:20:35;;;;;;;;;;;;;;;11.45;49.62;97114.78;4955539;29;19914;-63
2023/04/13 09:23:10;;;;;;;;;;;;;;;11.28;48.64;97118.09;4956629;29;20372;-63
2023/04/13 09:25:36;;;;;;;;;;;;;;;11.24;48.03;97119.34;4956704;28;19974;-63
2023/04/13 09:28:03;;;;;;;;;;;;;;;11.23;49.80;97117.69;4956435;29;20343;-62
2023/04/13 09:30:29;;;;;;;;;;;;;;;11.25;49.93;97113.09;4956700;29;19914;-63
2023/04/13 09:33:02;;;;;;;;;;;;;;;11.26;49.70;97109.53;4956049;28;19970;-62
2023/04/13 09:35:28;;;;;;;;;;;;;;;11.47;49.63;97107.63;4955001;28;20384;-63
2023/04/13 09:37:54;;;;;;;;;;;;;;;11.69;48.90;97110.94;4955127;29;19921;-63
2023/04/13 09:40:20;;;;;;;;;;;;;;;11.77;47.53;97111.09;4956432;29;19919;-63
2023/04/13 09:42:59;;;;;;;;;;;;;;;11.65;47.12;97123.53;4956343;29;19987;-64
2023/04/13 09:45:31;;;;;;;;;;;;;;;11.54;47.85;97098.22;4955072;28;20380;-63
2023/04/13 09:47:59;;;;;;;;;;;;;;;11.51;47.74;97105.56;4956041;29;19919;-63
2023/04/13 09:50:27;;;;;;;;;;;;;;;11.58;48.39;97115.34;4956174;29;19915;-63
2023/04/13 09:53:03;;;;;;;;;;;;;;;11.58;48.08;97094.34;4956365;29;19946;-63
2023/04/13 09:55:28;;;;;;;;;;;;;;;11.70;47.61;97110.81;4954870;28;19919;-63
2023/04/13 09:57:53;;;;;;;;;;;;;;;11.84;48.28;97106.97;4954601;29;19914;-64
2023/04/13 10:00:22;;;;;;;;;;;;;;;11.91;47.34;97110.69;4955998;29;20399;-63
2023/04/13 10:02:50;;;;;;;;;;;;;;;11.85;46.94;97108.63;4956512;29;19914;-63
2023/04/13 10:05:16;;;;;;;;;;;;;;;11.84;47.41;97099.09;4954696;28;19914;-63
2023/04/13 10:07:44;;;;;;;;;;;;;;;11.71;45.84;97098.50;4954605;29;20005;-64
2023/04/13 10:10:10;;;;;;;;;;;;;;;11.73;47.71;97112.31;4955903;29;19914;-64
2023/04/13 10:12:35;;;;;;;;;;;;;;;11.61;47.59;97120.34;4955773;29;20001;-64
2023/04/13 10:15:24;;;;;;;;;;;;;;;11.52;46.64;97121.16;4955514;28;19918;-63
2023/04/13 10:18:02;;;;;;;;;;;;;;;11.71;47.19;97109.00;4949953;28;19919;-63
2023/04/13 10:20:27;;;;;;;;;;;;;;;11.97;46.42;97112.72;4955583;29;20366;-63
2023/04/13 10:22:52;;;;;;;;;;;;;;;12.28;46.10;97113.38;4954488;29;20009;-64
2023/04/13 10:25:18;;;;;;;;;;;;;;;12.44;45.30;97118.03;4954248;28;19973;-62
2023/04/13 10:27:54;;;;;;;;;;;;;;;12.47;45.17;97104.59;4955323;29;19911;-60
2023/04/13 10:30:20;;;;;;;;;;;;;;;12.57;44.66;97108.03;4954323;29;19914;-62
2023/04/13 10:32:46;;;;;;;;;;;;;;;12.69;44.29;97108.66;4954146;29;19925;-63
2023/04/13 10:35:11;;;;;;;;;;;;;;;12.50;45.75;97101.69;4953956;28;20288;-62
2023/04/13 10:37:38;;;;;;;;;;;;;;;12.27;45.71;97118.78;4953913;29;19965;-62
2023/04/13 10:40:05;;;;;;;;;;;;;;;12.00;46.14;97098.50;4955251;29;19915;-62
2023/04/13 10:42:40;;;;;;;;;;;;;;;11.88;46.79;97101.28;4953881;28;19918;-62
2023/04/13 10:45:14;;;;;;;;;;;;;;;11.76;48.74;97101.53;4954583;28;19915;-63
2023/04/13 10:47:40;;;;;;;;;;;;;;;12.03;48.21;97099.03;4954808;29;19914;-62
2023/04/13 10:50:14;;;;;;;;;;;;;;;12.34;46.19;97090.94;4954961;29;19922;-63
2023/04/13 10:52:39;;;;;;;;;;;;;;;12.54;45.06;97089.91;4937644;29;20400;-63
2023/04/13 10:55:05;;;;;;;;;;;;;;;12.77;44.19;97095.63;4954610;28;19918;-63
2023/04/13 10:57:33;;;;;;;;;;;;;;;13.01;43.43;97095.09;4953608;29;19924;-63
2023/04/13 10:59:58;;;;;;;;;;;;;;;13.08;43.95;97100.59;4954032;29;19985;-63
2023/04/13 11:02:24;;;;;;;;;;;;;;;13.30;43.78;97096.75;4955069;29;19950;-64
2023/04/13 11:04:50;;;;;;;;;;;;;;;13.52;43.18;97098.94;4953688;28;19914;-63
2023/04/13 11:07:20;;;;;;;;;;;;;;;13.60;42.83;97095.56;4953924;29;19914;-64
2023/04/13 11:09:46;;;;;;;;;;;;;;;13.49;42.42;97088.72;4954954;29;19914;-64
2023/04/13 11:12:12;;;;;;;;;;;;;;;13.40;43.07;97092.22;4954045;29;20395;-63
2023/04/13 11:14:37;;;;;;;;;;;;;;;13.53;43.39;97090.06;4953380;28;20372;-63
2023/04/13 11:17:06;;;;;;;;;;;;;;;13.97;41.28;97079.56;4954955;29;19914;-64
2023/04/13 11:19:31;;;;;;;;;;;;;;;13.98;41.19;97083.84;4954346;29;19921;-62
2023/04/13 11:21:58;;;;;;;;;;;;;;;14.33;41.08;97078.63;4953822;29;20299;-63
2023/04/13 11:24:28;;;;;;;;;;;;;;;14.30;40.77;97087.66;4954712;29;19922;-65
2023/04/13 11:26:53;;;;;;;;;;;;;;;14.28;41.23;97073.81;4954198;28;19918;-63
2023/04/13 11:29:21;;;;;;;;;;;;;;;14.13;39.79;97075.38;4953518;29;20029;-64
2023/04/13 11:31:47;;;;;;;;;;;;;;;14.05;40.20;97070.88;4951966;29;19925;-63
2023/04/13 11:34:12;;;;;;;;;;;;;;;13.59;41.32;97069.34;4953120;29;19919;-63
2023/04/13 11:36:38;;;;;;;;;;;;;;;13.41;42.21;97070.19;4954333;28;20009;-63
2023/04/13 11:39:07;;;;;;;;;;;;;;;13.30;43.07;97075.66;4953046;29;19937;-63
2023/04/13 11:41:32;;;;;;;;;;;;;;;12.83;43.55;97086.31;4953389;29;19918;-63
2023/04/13 11:44:01;;;;;;;;;;;;;;;12.54;45.30;97089.09;4954331;28;19915;-63
2023/04/13 11:46:27;;;;;;;;;;;;;;;12.28;48.95;97096.78;4954238;28;19914;-63
2023/04/13 11:48:53;;;;;;;;;;;;;;;12.17;50.45;97091.69;4952832;29;19914;-63
2023/04/13 11:51:18;;;;;;;;;;;;;;;12.13;49.69;97077.19;4951292;29;20005;-63
2023/04/13 11:53:44;;;;;;;;;;;;;;;12.50;48.79;97080.66;4951797;29;20410;-63
2023/04/13 11:56:09;;;;;;;;;;;;;;;12.87;47.49;97082.44;4946068;29;19925;-63
2023/04/13 11:58:35;;;;;;;;;;;;;;;13.61;46.35;97070.84;4952644;29;19915;-63
2023/04/13 12:01:04;;;;;;;;;;;;;;;14.13;43.94;97070.09;4951849;29;19930;-63
2023/04/13 12:03:32;;;;;;;;;;;;;;;14.61;42.22;97068.75;4953199;29;19930;-63
2023/04/13 12:06:00;;;;;;;;;;;;;;;14.80;42.20;97068.50;4951107;29;19918;-63
2023/04/13 12:08:25;;;;;;;;;;;;;;;14.90;40.95;97071.00;4953524;29;19921;-63
2023/04/13 12:10:58;;;;;;;;;;;;;;;14.98;41.22;97070.22;4957038;28;19922;-63
2023/04/13 12:13:23;;;;;;;;;;;;;;;14.75;40.38;97076.06;4951989;29;19918;-63
2023/04/13 12:15:49;;;;;;;;;;;;;;;14.49;40.17;97076.09;4966329;28;19929;-63
2023/04/13 12:18:14;;;;;;;;;;;;;;;14.25;41.29;97074.13;4948803;29;19922;-63
2023/04/13 12:20:42;;;;;;;;;;;;;;;14.15;42.07;97078.69;4953801;29;19922;-63
2023/04/13 12:23:17;;;;;;;;;;;;;;;13.87;42.54;97086.72;4952387;28;19926;-63
2023/04/13 12:25:56;;;;;;;;;;;;;;;13.78;44.40;97093.72;4955521;28;20292;-63
2023/04/13 12:28:21;;;;;;;;;;;;;;;13.59;46.63;97101.78;4945324;28;19923;-63
2023/04/13 12:30:46;;;;;;;;;;;;;;;13.45;46.15;97100.50;4952347;29;19919;-63
2023/04/13 12:33:12;;;;;;;;;;;;;;;13.40;46.38;97096.69;4953755;28;19914;-63
2023/04/13 12:35:37;;;;;;;;;;;;;;;13.19;46.41;97096.94;4953739;28;19918;-63
2023/04/13 12:38:03;;;;;;;;;;;;;;;13.13;46.35;97100.16;4951626;29;19918;-63
2023/04/13 12:40:28;;;;;;;;;;;;;;;12.89;46.91;97098.88;4950633;29;19941;-62
2023/04/13 12:42:54;;;;;;;;;;;;;;;12.76;46.86;97101.03;4953594;29;19914;-63
2023/04/13 12:45:19;;;;;;;;;;;;;;;12.63;47.66;97103.16;4953765;28;19914;-63
2023/04/13 12:47:45;;;;;;;;;;;;;;;12.35;48.02;97098.72;4953540;29;19922;-63
2023/04/13 12:50:10;;;;;;;;;;;;;;;12.23;49.93;97101.63;4953703;29;19918;-63
2023/04/13 12:52:36;;;;;;;;;;;;;;;12.08;52.07;97107.34;4953780;29;20350;-63
2023/04/13 12:55:01;;;;;;;;;;;;;;;11.79;54.66;97101.25;4953535;28;20431;-63
2023/04/13 12:57:27;;;;;;;;;;;;;;;11.53;57.98;97111.50;4952328;29;20016;-63
2023/04/13 12:59:52;;;;;;;;;;;;;;;11.36;59.42;97110.38;4953583;29;19953;-63
2023/04/13 13:02:17;;;;;;;;;;;;;;;11.16;59.38;97099.84;4953593;29;19914;-63
2023/04/13 13:04:42;;;;;;;;;;;;;;;11.26;59.16;97099.03;4953546;28;19914;-63
2023/04/13 13:07:08;;;;;;;;;;;;;;;11.60;58.71;97092.44;4954762;28;19915;-63
2023/04/13 13:09:33;;;;;;;;;;;;;;;12.17;56.86;97097.78;4955892;29;19969;-63
2023/04/13 13:11:59;;;;;;;;;;;;;;;12.64;55.72;97095.13;4939778;29;19914;-63
2023/04/13 13:14:24;;;;;;;;;;;;;;;13.10;54.49;97092.53;4956892;29;19925;-64
2023/04/13 13:16:49;;;;;;;;;;;;;;;13.51;51.45;97094.63;4956707;28;19915;-62
2023/04/13 13:19:15;;;;;;;;;;;;;;;13.90;50.02;97102.25;4956844;29;20003;-63
2023/04/13 13:21:40;;;;;;;;;;;;;;;14.14;48.90;97098.97;4955522;29;19922;-64
2023/04/13 13:24:05;;;;;;;;;;;;;;;14.24;48.83;97099.66;4956732;29;19915;-64
2023/04/13 13:26:30;;;;;;;;;;;;;;;14.38;48.30;97093.00;4956558;28;20386;-64
2023/04/13 13:28:56;;;;;;;;;;;;;;;14.56;47.13;97097.44;4956485;29;19915;-64
2023/04/13 13:31:21;;;;;;;;;;;;;;;14.51;46.47;97094.41;4956560;29;19918;-63
2023/04/13 13:33:46;;;;;;;;;;;;;;;13.89;46.65;97103.19;4956467;29;19921;-63
2023/04/13 13:36:12;;;;;;;;;;;;;;;13.53;46.96;97100.59;4956487;28;19915;-63
2023/04/13 13:38:37;;;;;;;;;;;;;;;13.52;47.80;97100.72;4956411;29;20395;-63
2023/04/13 13:41:03;;;;;;;;;;;;;;;13.54;47.50;97102.25;4954964;29;19914;-63
2023/04/13 13:43:28;;;;;;;;;;;;;;;13.58;47.59;97107.22;4956315;29;19942;-62
2023/04/13 13:45:53;;;;;;;;;;;;;;;13.50;47.18;97098.25;4956313;28;20005;-62
2023/04/13 13:48:20;;;;;;;;;;;;;;;13.52;46.74;97100.72;4956160;29;19942;-63
2023/04/13 13:50:45;;;;;;;;;;;;;;;13.49;46.82;97098.41;4955238;29;19922;-64
2023/04/13 13:53:10;;;;;;;;;;;;;;;13.58;46.97;97101.94;4956192;29;19919;-64
2023/04/13 13:55:36;;;;;;;;;;;;;;;13.60;46.25;97110.53;4954969;28;20104;-63
2023/04/13 13:58:01;;;;;;;;;;;;;;;13.74;45.39;97102.09;4955864;29;19923;-63
2023/04/13 14:00:26;;;;;;;;;;;;;;;13.90;44.65;97107.50;4956094;29;19914;-63
2023/04/13 14:02:51;;;;;;;;;;;;;;;13.94;44.58;97108.84;4938815;29;19922;-63
2023/04/13 14:05:17;;;;;;;;;;;;;;;14.08;44.95;97106.66;4955977;28;19915;-63
2023/04/13 14:07:42;;;;;;;;;;;;;;;14.13;44.69;97107.81;4955763;29;19914;-63
2023/04/13 14:10:08;;;;;;;;;;;;;;;14.19;44.29;97111.66;4955859;29;19918;-63
2023/04/13 14:12:33;;;;;;;;;;;;;;;14.19;44.19;97112.50;4954577;29;20361;-63
2023/04/13 14:14:58;;;;;;;;;;;;;;;14.25;43.90;97106.59;4954621;28;19925;-63
2023/04/13 14:17:23;;;;;;;;;;;;;;;14.16;43.62;97106.69;4955481;28;19915;-64
2023/04/13 14:19:49;;;;;;;;;;;;;;;13.89;43.49;97111.09;4954468;29;19918;-63
2023/04/13 14:22:14;;;;;;;;;;;;;;;13.82;43.81;97110.06;4955676;29;20296;-63
2023/04/13 14:24:39;;;;;;;;;;;;;;;13.85;44.52;97108.94;4955645;28;19918;-64
2023/04/13 14:27:05;;;;;;;;;;;;;;;13.77;44.33;97112.34;4955257;28;19961;-63
2023/04/13 14:29:30;;;;;;;;;;;;;;;13.60;43.88;97115.81;4954387;29;19919;-63
2023/04/13 14:31:56;;;;;;;;;;;;;;;13.49;44.51;97109.78;4955489;29;19915;-63
2023/04/13 14:34:21;;;;;;;;;;;;;;;13.53;44.73;97108.50;4955394;29;20023;-63
2023/04/13 14:36:46;;;;;;;;;;;;;;;13.53;45.02;97105.88;4955291;28;19958;-64
2023/04/13 14:39:11;;;;;;;;;;;;;;;13.65;45.28;97108.25;4955247;29;19915;-63
2023/04/13 14:41:36;;;;;;;;;;;;;;;13.72;45.04;97110.13;4954029;29;19923;-63
2023/04/13 14:44:02;;;;;;;;;;;;;;;13.76;45.48;97111.50;4954027;29;19945;-63
2023/04/13 14:46:27;;;;;;;;;;;;;;;13.84;45.71;97104.66;4953952;28;19922;-64
2023/04/13 14:48:52;;;;;;;;;;;;;;;14.01;45.25;97104.63;4955011;29;19921;-64
2023/04/13 14:51:17;;;;;;;;;;;;;;;14.26;44.50;97107.44;4955111;29;19991;-64
2023/04/13 14:53:43;;;;;;;;;;;;;;;14.37;44.06;97103.69;4955011;29;19915;-63
2023/04/13 14:56:09;;;;;;;;;;;;;;;14.76;43.35;97112.00;4953605;28;19922;-67
2023/04/13 14:58:34;;;;;;;;;;;;;;;15.04;42.25;97103.91;4953608;29;19921;-62
2023/04/13 15:01:00;;;;;;;;;;;;;;;15.35;41.96;97093.59;4954960;28;19922;-64
2023/04/13 15:03:27;;;;;;;;;;;;;;;15.61;41.46;97099.56;4954998;29;20269;-64
2023/04/13 15:05:53;;;;;;;;;;;;;;;15.72;41.11;97098.44;4954729;28;19997;-64
2023/04/13 15:08:18;;;;;;;;;;;;;;;15.83;40.33;97098.13;4954711;29;20055;-62
2023/04/13 15:10:43;;;;;;;;;;;;;;;15.78;40.30;97104.91;4954832;29;19949;-64
2023/04/13 15:13:09;;;;;;;;;;;;;;;15.50;40.60;97104.34;4954802;29;19966;-64
2023/04/13 15:15:34;;;;;;;;;;;;;;;15.34;40.67;97097.19;4954582;28;19958;-62
2023/04/13 15:18:00;;;;;;;;;;;;;;;15.29;40.89;97099.50;4953112;29;19961;-64
2023/04/13 15:20:25;;;;;;;;;;;;;;;15.22;41.18;97101.97;4953404;29;19925;-64
2023/04/13 15:22:50;;;;;;;;;;;;;;;14.85;40.83;97108.44;4954612;29;19915;-63
2023/04/13 15:25:16;;;;;;;;;;;;;;;14.68;42.02;97102.25;4953173;28;19994;-64
2023/04/13 15:27:41;;;;;;;;;;;;;;;14.62;42.49;97102.06;4953265;29;19922;-64
2023/04/13 15:30:08;;;;;;;;;;;;;;;14.66;43.13;97098.97;4953992;28;19906;-63
2023/04/13 15:32:34;;;;;;;;;;;;;;;14.67;43.24;97105.88;4953325;29;19954;-64
2023/04/13 15:35:00;;;;;;;;;;;;;;;14.45;43.28;97103.75;4954954;28;19918;-64
2023/04/13 15:37:25;;;;;;;;;;;;;;;14.19;43.09;97107.22;4954266;29;19937;-63
2023/04/13 15:39:50;;;;;;;;;;;;;;;14.06;43.98;97106.78;4954354;29;19914;-64
2023/04/13 15:42:17;;;;;;;;;;;;;;;13.75;44.69;97101.94;4954371;29;19915;-63
2023/04/13 15:44:43;;;;;;;;;;;;;;;13.57;46.01;97106.38;4954205;28;20384;-63
2023/04/13 15:47:08;;;;;;;;;;;;;;;13.63;46.29;97091.78;4954115;29;19938;-62
2023/04/13 15:49:33;;;;;;;;;;;;;;;13.51;47.07;97094.63;4954260;29;20427;-63
2023/04/13 15:51:58;;;;;;;;;;;;;;;13.71;45.54;97092.69;4954225;29;20380;-65
2023/04/13 15:54:23;;;;;;;;;;;;;;;13.73;45.38;97090.72;4954140;29;19925;-61
2023/04/13 15:56:49;;;;;;;;;;;;;;;13.63;45.05;97076.00;4953988;28;19931;-62
2023/04/13 15:59:14;;;;;;;;;;;;;;;13.57;45.44;97087.94;4954078;29;20001;-61
2023/04/13 16:01:47;;;;;;;;;;;;;;;13.50;45.41;97090.34;4952887;29;19949;-62
2023/04/13 16:04:12;;;;;;;;;;;;;;;13.37;45.00;97095.16;4952946;29;19973;-62
2023/04/13 16:06:38;;;;;;;;;;;;;;;13.27;45.05;97099.66;4954595;28;20388;-61
2023/04/13 16:09:03;;;;;;;;;;;;;;;13.21;45.41;97094.94;4953819;29;20009;-64
2023/04/13 16:11:28;;;;;;;;;;;;;;;13.15;45.35;97096.41;4954102;29;20009;-62
2023/04/13 16:13:57;;;;;;;;;;;;;;;13.03;46.41;97095.75;4953972;29;20024;-62
2023/04/13 16:16:25;;;;;;;;;;;;;;;12.96;46.80;97109.66;4954183;28;19914;-63
2023/04/13 16:18:51;;;;;;;;;;;;;;;12.93;47.70;97110.78;4953854;29;19915;-62
2023/04/13 16:21:18;;;;;;;;;;;;;;;12.95;47.94;97116.72;4952930;29;19942;-63
2023/04/13 16:23:44;;;;;;;;;;;;;;;12.92;48.18;97122.28;4953865;29;19919;-63
2023/04/13 16:26:09;;;;;;;;;;;;;;;12.90;48.15;97123.41;4953806;28;19929;-62
2023/04/13 16:28:35;;;;;;;;;;;;;;;12.89;48.68;97127.84;4952644;29;19915;-62
2023/04/13 16:31:00;;;;;;;;;;;;;;;12.85;49.39;97138.81;4953836;29;19942;-62
2023/04/13 16:33:26;;;;;;;;;;;;;;;12.75;50.01;97136.22;4953829;29;19914;-62
2023/04/13 16:35:51;;;;;;;;;;;;;;;12.63;49.86;97139.97;4953674;28;19949;-63
2023/04/13 16:38:17;;;;;;;;;;;;;;;12.50;50.27;97141.16;4953545;29;19970;-63
2023/04/13 16:40:42;;;;;;;;;;;;;;;12.35;49.96;97150.44;4952646;28;20439;-63
2023/04/13 16:43:07;;;;;;;;;;;;;;;12.26;50.53;97148.69;4955435;29;19915;-63
2023/04/13 16:45:32;;;;;;;;;;;;;;;12.15;51.17;97148.81;4957275;28;19961;-62
2023/04/13 16:47:57;;;;;;;;;;;;;;;12.10;50.83;97152.69;4957076;29;19997;-63
2023/04/13 16:50:27;;;;;;;;;;;;;;;11.93;50.21;97145.53;4957301;29;19918;-63
2023/04/13 16:52:52;;;;;;;;;;;;;;;11.87;51.59;97153.94;4955882;29;19915;-63
2023/04/13 16:55:18;;;;;;;;;;;;;;;11.84;51.65;97154.25;4957276;28;20296;-64
2023/04/13 16:57:43;;;;;;;;;;;;;;;11.72;52.84;97152.69;4957012;29;20299;-63
2023/04/13 17:00:09;;;;;;;;;;;;;;;11.68;53.91;97160.00;4955904;29;20291;-62
2023/04/13 17:02:35;;;;;;;;;;;;;;;11.63;55.14;97170.09;4957161;29;19915;-63
2023/04/13 17:05:00;;;;;;;;;;;;;;;11.60;55.86;97173.84;4956958;28;19914;-62
2023/04/13 17:07:27;;;;;;;;;;;;;;;11.54;55.90;97182.25;4956689;29;19914;-62
2023/04/13 17:09:52;;;;;;;;;;;;;;;11.46;56.69;97181.25;4955831;29;19915;-62
2023/04/13 17:12:17;;;;;;;;;;;;;;;11.38;57.01;97181.94;4957058;29;20013;-63
2023/04/13 17:14:43;;;;;;;;;;;;;;;11.34;57.41;97183.19;4956727;28;19918;-64
2023/04/13 17:17:08;;;;;;;;;;;;;;;11.29;58.42;97183.59;4955310;29;19921;-63
2023/04/13 17:19:33;;;;;;;;;;;;;;;11.26;59.31;97172.53;4946762;28;19919;-63
2023/04/13 17:21:58;;;;;;;;;;;;;;;11.14;59.07;97175.25;4953868;28;20372;-63
2023/04/13 17:24:23;;;;;;;;;;;;;;;11.03;59.36;97180.59;4979094;28;20446;-65
2023/04/13 17:26:49;;;;;;;;;;;;;;;10.95;60.52;97185.69;4957056;28;20332;-65
2023/04/13 17:29:14;;;;;;;;;;;;;;;10.92;60.12;97196.44;4958627;28;20336;-65
2023/04/13 17:31:39;;;;;;;;;;;;;;;10.82;60.18;97199.03;4969634;28;19925;-65
2023/04/13 17:34:04;;;;;;;;;;;;;;;10.77;60.26;97193.34;4956930;28;19930;-65
2023/04/13 17:36:30;;;;;;;;;;;;;;;10.71;60.77;97188.63;4955784;28;19922;-66
2023/04/13 17:38:55;;;;;;;;;;;;;;;10.62;60.68;97195.47;4974437;28;19918;-65
2023/04/13 17:41:20;;;;;;;;;;;;;;;10.52;60.47;97191.97;4964390;28;19925;-65
2023/04/13 17:43:45;;;;;;;;;;;;;;;10.49;61.57;97194.00;4954249;28;19922;-65
2023/04/13 17:46:11;;;;;;;;;;;;;;;10.44;62.24;97202.28;4966138;28;19925;-65
2023/04/13 17:48:36;;;;;;;;;;;;;;;10.41;63.74;97199.91;4965420;28;19926;-67
2023/04/13 17:51:01;;;;;;;;;;;;;;;10.37;65.33;97207.19;4951472;28;19956;-66
2023/04/13 17:53:27;;;;;;;;;;;;;;;10.33;65.13;97212.84;4956108;28;19919;-64
2023/04/13 17:55:52;;;;;;;;;;;;;;;10.28;64.61;97215.81;4959305;28;19922;-65
2023/04/13 17:58:17;;;;;;;;;;;;;;;10.26;65.02;97211.69;4956449;28;19918;-65
2023/04/13 18:00:43;;;;;;;;;;;;;;;10.13;65.99;97219.69;4973721;28;19914;-65
2023/04/13 18:03:09;;;;;;;;;;;;;;;10.05;66.43;97222.94;4958231;28;19918;-64
2023/04/13 18:05:34;;;;;;;;;;;;;;;9.99;66.50;97223.44;4957658;28;19932;-64
2023/04/13 18:08:00;;;;;;;;;;;;;;;9.93;66.41;97223.94;4952311;29;19918;-65